Time;durP1;ratioP1;P1;durP2;ratioP2;P2;SDS_P1;SDS_P2;PMS_P1;PMS_P2;Temp;Humidity;BMP_temperature;BMP_pressure;BME280_temperature;BME280_humidity;BME280_pressure;Samples;Min_cycle;Max_cycle;Signal;HPM_P1;HPM_P2
2023/09/06 00:01:25;;;;;;;13.32;6.93;;;20.70;99.90;;;;;;5110008;28;20035;-69
2023/09/06 00:03:50;;;;;;;11.93;7.03;;;20.70;99.90;;;;;;5107854;28;20031;-70
2023/09/06 00:06:16;;;;;;;12.32;6.38;;;20.70;99.90;;;;;;5099038;28;20417;-67
2023/09/06 00:08:42;;;;;;;10.75;5.03;;;20.70;99.90;;;;;;5099438;28;20130;-68
2023/09/06 00:11:09;;;;;;;8.55;4.63;;;20.80;99.90;;;;;;5112547;28;20026;-69
2023/09/06 00:13:35;;;;;;;10.80;4.72;;;20.80;99.90;;;;;;5112944;27;20016;-69
2023/09/06 00:16:02;;;;;;;9.95;5.10;;;20.80;99.90;;;;;;5113162;28;20039;-67
2023/09/06 00:18:28;;;;;;;8.82;5.10;;;20.90;99.90;;;;;;5109029;28;20027;-68
2023/09/06 00:20:54;;;;;;;9.35;4.97;;;20.90;99.90;;;;;;5115602;28;20023;-70
2023/09/06 00:23:20;;;;;;;8.82;5.30;;;20.90;99.90;;;;;;5099566;28;20390;-67
2023/09/06 00:25:46;;;;;;;10.80;4.95;;;21.00;99.90;;;;;;5098957;28;20035;-69
2023/09/06 00:28:15;;;;;;;9.45;5.18;;;21.00;99.90;;;;;;5098932;28;20473;-68
2023/09/06 00:30:44;;;;;;;9.45;5.13;;;21.00;99.90;;;;;;5111442;28;20446;-69
2023/09/06 00:33:10;;;;;;;11.13;5.22;;;21.00;99.90;;;;;;5110027;28;20039;-70
2023/09/06 00:35:38;;;;;;;13.52;5.70;;;21.10;99.90;;;;;;5113493;28;20101;-71
2023/09/06 00:38:05;;;;;;;7.75;5.32;;;21.10;99.90;;;;;;5106592;28;20063;-69
2023/09/06 00:40:31;;;;;;;10.75;5.68;;;21.00;99.90;;;;;;5110076;28;20031;-68
2023/09/06 00:42:59;;;;;;;11.45;5.75;;;21.00;99.90;;;;;;5110261;28;21390;-68
2023/09/06 00:45:37;;;;;;;11.32;5.25;;;21.00;99.90;;;;;;5105161;28;20027;-68
2023/09/06 00:48:05;;;;;;;10.57;5.00;;;20.90;99.90;;;;;;5110496;28;20382;-68
2023/09/06 00:50:33;;;;;;;8.30;5.25;;;20.90;99.90;;;;;;5100873;28;20118;-69
2023/09/06 00:52:59;;;;;;;9.90;5.15;;;20.80;99.90;;;;;;5108587;28;20537;-68
2023/09/06 00:55:25;;;;;;;11.40;5.28;;;20.80;99.90;;;;;;5096973;28;20054;-69
2023/09/06 00:57:52;;;;;;;7.80;4.90;;;20.80;99.90;;;;;;5098217;28;20020;-70
2023/09/06 01:00:19;;;;;;;11.20;5.45;;;20.80;99.90;;;;;;5100003;28;20044;-70
2023/09/06 01:02:47;;;;;;;13.45;6.47;;;20.70;99.90;;;;;;5109005;28;20034;-70
2023/09/06 01:05:16;;;;;;;10.27;4.57;;;20.70;99.90;;;;;;5109974;28;20020;-69
2023/09/06 01:07:46;;;;;;;13.02;5.20;;;20.70;99.90;;;;;;5111134;28;20024;-70
2023/09/06 01:10:11;;;;;;;9.15;5.07;;;20.70;99.90;;;;;;5114982;28;20051;-67
2023/09/06 01:12:37;;;;;;;8.95;4.88;;;20.60;99.90;;;;;;5101189;28;20105;-68
2023/09/06 01:15:04;;;;;;;9.90;5.15;;;20.60;99.90;;;;;;5100470;28;20068;-71
2023/09/06 01:17:31;;;;;;;8.75;5.32;;;20.60;99.90;;;;;;5102497;28;20027;-70
2023/09/06 01:20:17;;;;;;;9.02;4.93;;;20.60;99.90;;;;;;5111256;28;20020;-69
2023/09/06 01:23:05;;;;;;;13.75;5.35;;;20.60;99.90;;;;;;5110670;28;20024;-70
2023/09/06 01:25:31;;;;;;;8.85;5.50;;;20.50;99.90;;;;;;5097071;28;20423;-67
2023/09/06 01:27:56;;;;;;;9.80;5.20;;;20.50;99.90;;;;;;5113068;28;20497;-69
2023/09/06 01:30:28;;;;;;;12.40;5.68;;;20.50;99.90;;;;;;5097391;28;20020;-67
2023/09/06 01:32:53;;;;;;;8.43;4.85;;;20.50;99.90;;;;;;5098599;28;20035;-68
2023/09/06 01:35:19;;;;;;;9.98;5.10;;;20.50;99.90;;;;;;5098707;28;20031;-68
2023/09/06 01:37:44;;;;;;;13.05;5.30;;;20.50;99.90;;;;;;5097646;28;20095;-68
2023/09/06 01:40:17;;;;;;;9.77;5.35;;;20.50;99.90;;;;;;5097117;28;20048;-69
2023/09/06 01:42:46;;;;;;;10.30;4.80;;;20.50;99.90;;;;;;5098065;28;20027;-70
2023/09/06 01:45:17;;;;;;;7.55;4.40;;;20.50;99.90;;;;;;5110777;28;20051;-70
2023/09/06 01:47:44;;;;;;;9.40;5.25;;;20.50;99.90;;;;;;5110869;28;20425;-69
2023/09/06 01:50:09;;;;;;;10.55;4.90;;;20.50;99.90;;;;;;5110595;28;20023;-70
2023/09/06 01:52:36;;;;;;;10.73;5.03;;;20.50;99.90;;;;;;5110605;28;20031;-69
2023/09/06 01:55:04;;;;;;;8.93;5.10;;;20.50;99.90;;;;;;5107883;28;20103;-68
2023/09/06 01:57:30;;;;;;;11.20;5.15;;;20.50;99.90;;;;;;5110779;28;20028;-68
2023/09/06 01:59:56;;;;;;;13.77;5.97;;;20.50;99.90;;;;;;5110476;28;20030;-68
2023/09/06 02:02:21;;;;;;;10.88;5.30;;;20.50;99.90;;;;;;5113953;28;20065;-68
2023/09/06 02:04:47;;;;;;;11.60;5.47;;;20.40;99.90;;;;;;5109338;28;20417;-69
2023/09/06 02:07:14;;;;;;;13.80;6.60;;;20.40;99.90;;;;;;5108578;28;20046;-70
2023/09/06 02:09:40;;;;;;;12.48;6.57;;;20.30;99.90;;;;;;5108179;28;20044;-68
2023/09/06 02:12:06;;;;;;;12.27;6.68;;;20.30;99.90;;;;;;5104848;28;20032;-71
2023/09/06 02:14:32;;;;;;;10.35;6.00;;;20.30;99.90;;;;;;5102712;28;20039;-68
2023/09/06 02:16:57;;;;;;;16.90;7.07;;;20.20;99.90;;;;;;5111179;28;20016;-69
2023/09/06 02:19:23;;;;;;;12.13;6.43;;;20.10;99.90;;;;;;5097599;28;20020;-71
2023/09/06 02:21:49;;;;;;;13.93;6.90;;;20.10;99.90;;;;;;5103819;28;20035;-71
2023/09/06 02:24:14;;;;;;;16.65;6.72;;;20.10;99.90;;;;;;5111276;28;20024;-68
2023/09/06 02:26:40;;;;;;;13.52;6.55;;;20.10;99.90;;;;;;5112232;28;20042;-68
2023/09/06 02:29:05;;;;;;;14.65;6.90;;;20.10;99.90;;;;;;5109397;28;20035;-69
2023/09/06 02:31:31;;;;;;;15.52;7.82;;;20.00;99.90;;;;;;5106313;28;20027;-69
2023/09/06 02:33:57;;;;;;;16.33;7.65;;;20.00;99.90;;;;;;5099981;28;20391;-68
2023/09/06 02:36:22;;;;;;;16.58;7.65;;;20.00;99.90;;;;;;5111792;28;20024;-69
2023/09/06 02:38:48;;;;;;;13.65;7.15;;;20.00;99.90;;;;;;5111993;28;20023;-67
2023/09/06 02:41:14;;;;;;;13.65;7.18;;;20.00;99.90;;;;;;5111293;28;20015;-69
2023/09/06 02:43:39;;;;;;;15.77;6.93;;;19.90;99.90;;;;;;5112596;28;20028;-68
2023/09/06 02:46:05;;;;;;;14.57;7.25;;;19.90;99.90;;;;;;5101146;28;20430;-68
2023/09/06 02:48:33;;;;;;;16.90;7.65;;;19.90;99.90;;;;;;5093683;28;20415;-69
2023/09/06 02:50:59;;;;;;;16.73;7.57;;;19.90;99.90;;;;;;5093891;28;20051;-68
2023/09/06 02:53:26;;;;;;;16.88;7.50;;;19.90;99.90;;;;;;5095150;28;20102;-68
2023/09/06 02:55:53;;;;;;;14.77;6.97;;;19.90;99.90;;;;;;5093257;28;20032;-68
2023/09/06 02:58:23;;;;;;;17.83;7.72;;;19.90;99.90;;;;;;5093560;28;20031;-69
2023/09/06 03:00:49;;;;;;;14.30;7.55;;;19.90;99.90;;;;;;5103588;28;20038;-69
2023/09/06 03:03:16;;;;;;;11.93;6.55;;;19.80;99.90;;;;;;5093320;28;20020;-71
2023/09/06 03:05:42;;;;;;;12.25;6.78;;;19.80;99.90;;;;;;5093335;28;20522;-70
2023/09/06 03:08:12;;;;;;;13.38;6.90;;;19.80;99.90;;;;;;5093154;28;20478;-69
2023/09/06 03:10:39;;;;;;;13.02;6.47;;;19.80;99.90;;;;;;5093079;28;20391;-68
2023/09/06 03:13:05;;;;;;;10.90;6.40;;;19.70;99.90;;;;;;5093095;28;20028;-69
2023/09/06 03:15:31;;;;;;;11.73;6.20;;;19.70;99.90;;;;;;5093325;28;20502;-69
2023/09/06 03:18:01;;;;;;;11.98;6.63;;;19.70;99.90;;;;;;5097003;28;20024;-69
2023/09/06 03:20:33;;;;;;;10.10;6.38;;;19.60;99.90;;;;;;5112375;28;20482;-68
2023/09/06 03:23:01;;;;;;;11.80;6.27;;;19.60;99.90;;;;;;5112408;28;20040;-70
2023/09/06 03:25:27;;;;;;;12.88;6.25;;;19.60;99.90;;;;;;5112628;28;20405;-69
2023/09/06 03:28:00;;;;;;;11.07;6.00;;;19.50;99.90;;;;;;5111469;28;20016;-69
2023/09/06 03:30:27;;;;;;;10.20;6.55;;;19.50;99.90;;;;;;5093168;28;20100;-68
2023/09/06 03:32:53;;;;;;;9.35;6.25;;;19.50;99.90;;;;;;5092979;28;20024;-69
2023/09/06 03:35:22;;;;;;;9.65;6.22;;;19.50;99.90;;;;;;5107733;28;20053;-69
2023/09/06 03:37:47;;;;;;;13.32;6.65;;;19.40;99.90;;;;;;5114361;28;20102;-68
2023/09/06 03:40:46;;;;;;;10.80;6.85;;;19.40;99.90;;;;;;5104189;28;20107;-68
2023/09/06 03:43:29;;;;;;;13.20;6.70;;;19.30;99.90;;;;;;5094064;28;20093;-68
2023/09/06 03:45:58;;;;;;;11.93;6.72;;;19.30;99.90;;;;;;5097107;28;20084;-69
2023/09/06 03:48:26;;;;;;;12.23;6.88;;;19.30;99.90;;;;;;5097122;28;20046;-69
2023/09/06 03:50:55;;;;;;;11.70;7.07;;;19.30;99.90;;;;;;5099663;28;20030;-66
2023/09/06 03:53:23;;;;;;;13.45;7.47;;;19.20;99.90;;;;;;5097084;28;20020;-69
2023/09/06 03:55:50;;;;;;;11.95;6.22;;;19.20;99.90;;;;;;5096869;28;20028;-68
2023/09/06 03:58:15;;;;;;;12.10;7.13;;;19.10;99.90;;;;;;5097134;28;20023;-69
2023/09/06 04:00:44;;;;;;;10.98;7.03;;;19.10;99.90;;;;;;5097372;28;20032;-70
2023/09/06 04:03:14;;;;;;;14.48;7.20;;;19.10;99.90;;;;;;5097446;28;20486;-67
2023/09/06 04:05:40;;;;;;;11.15;6.97;;;19.00;99.90;;;;;;5102558;28;20152;-69
2023/09/06 04:08:07;;;;;;;13.15;7.10;;;19.00;99.90;;;;;;5115687;28;20071;-68
2023/09/06 04:10:40;;;;;;;15.35;7.22;;;18.90;99.90;;;;;;5116595;28;20030;-69
2023/09/06 04:13:07;;;;;;;13.25;7.40;;;18.90;99.90;;;;;;5097323;28;20474;-67
2023/09/06 04:15:36;;;;;;;12.93;7.40;;;18.90;99.90;;;;;;5108337;28;20034;-68
2023/09/06 04:18:04;;;;;;;12.98;7.45;;;18.80;99.90;;;;;;5116254;28;20530;-68
2023/09/06 04:20:36;;;;;;;11.27;7.15;;;18.80;99.90;;;;;;5116154;28;20104;-68
2023/09/06 04:23:12;;;;;;;13.60;7.57;;;18.80;99.90;;;;;;5097203;28;20028;-70
2023/09/06 04:25:41;;;;;;;13.70;7.88;;;18.80;99.90;;;;;;5102684;28;20042;-68
2023/09/06 04:28:08;;;;;;;12.10;7.18;;;18.80;99.90;;;;;;5114794;28;20020;-68
2023/09/06 04:30:40;;;;;;;14.85;7.95;;;18.70;99.90;;;;;;5100341;28;20102;-68
2023/09/06 04:33:10;;;;;;;12.82;7.93;;;18.70;99.90;;;;;;5096502;28;20027;-68
2023/09/06 04:35:46;;;;;;;14.70;7.68;;;18.70;99.90;;;;;;5096411;28;20527;-70
2023/09/06 04:38:14;;;;;;;12.23;7.40;;;18.70;99.90;;;;;;5096460;28;20028;-70
2023/09/06 04:40:42;;;;;;;14.35;8.43;;;18.70;99.90;;;;;;5096548;28;20507;-68
2023/09/06 04:43:08;;;;;;;15.27;8.07;;;18.70;99.90;;;;;;5102983;28;20020;-68
2023/09/06 04:45:37;;;;;;;12.48;7.95;;;18.70;99.90;;;;;;5103436;28;20040;-68
2023/09/06 04:48:10;;;;;;;13.70;7.53;;;18.70;99.90;;;;;;5115038;28;20047;-66
2023/09/06 04:50:39;;;;;;;13.80;8.55;;;18.70;99.90;;;;;;5115142;28;20063;-69
2023/09/06 04:53:07;;;;;;;14.32;8.75;;;18.70;99.90;;;;;;5095956;28;20031;-69
2023/09/06 04:55:35;;;;;;;16.83;8.93;;;18.70;99.90;;;;;;5103418;28;20020;-69
2023/09/06 04:58:02;;;;;;;15.27;8.68;;;18.70;99.90;;;;;;5115196;28;20020;-68
2023/09/06 05:00:35;;;;;;;15.55;9.10;;;18.70;99.90;;;;;;5114576;28;20104;-67
2023/09/06 05:03:00;;;;;;;15.48;9.13;;;18.70;99.90;;;;;;5111743;28;20028;-67
2023/09/06 05:05:27;;;;;;;17.25;8.85;;;18.70;99.90;;;;;;5095576;28;20055;-67
2023/09/06 05:07:53;;;;;;;18.92;9.95;;;18.80;99.90;;;;;;5095315;28;20031;-67
2023/09/06 05:10:18;;;;;;;17.23;9.18;;;18.80;99.90;;;;;;5095615;28;20032;-66
2023/09/06 05:12:45;;;;;;;15.98;9.30;;;18.80;99.90;;;;;;5110064;28;20043;-67
2023/09/06 05:15:14;;;;;;;16.45;8.93;;;18.80;99.90;;;;;;5114065;28;20141;-66
2023/09/06 05:17:40;;;;;;;15.07;9.55;;;18.80;99.90;;;;;;5108394;28;20102;-66
2023/09/06 05:20:27;;;;;;;14.90;9.13;;;18.80;99.90;;;;;;5109198;28;20111;-68
2023/09/06 05:22:55;;;;;;;14.63;8.25;;;18.80;99.90;;;;;;5113939;28;20053;-65
2023/09/06 05:25:21;;;;;;;12.18;8.25;;;18.80;99.90;;;;;;5107970;28;20024;-69
2023/09/06 05:27:46;;;;;;;20.95;9.68;;;18.80;99.90;;;;;;5103713;28;20019;-68
2023/09/06 05:30:12;;;;;;;16.40;9.63;;;18.80;99.90;;;;;;5114716;28;20042;-68
2023/09/06 05:32:38;;;;;;;17.15;9.65;;;18.90;99.90;;;;;;5114811;28;20031;-67
2023/09/06 05:35:04;;;;;;;15.32;9.15;;;18.90;99.90;;;;;;5112288;28;20019;-66
2023/09/06 05:37:30;;;;;;;17.33;9.02;;;18.90;99.90;;;;;;5114782;28;20034;-66
2023/09/06 05:39:56;;;;;;;15.60;9.55;;;19.00;99.90;;;;;;5111940;28;20047;-67
2023/09/06 05:42:22;;;;;;;14.60;9.35;;;19.00;99.90;;;;;;5112629;28;20062;-68
2023/09/06 05:44:47;;;;;;;15.93;9.40;;;19.00;99.90;;;;;;5113362;28;20063;-66
2023/09/06 05:47:13;;;;;;;15.93;10.10;;;19.10;99.90;;;;;;5114424;28;20184;-66
2023/09/06 05:49:38;;;;;;;16.45;9.43;;;19.10;99.90;;;;;;5113606;28;20438;-67
2023/09/06 05:52:04;;;;;;;16.70;10.13;;;19.10;99.90;;;;;;5112772;28;20040;-67
2023/09/06 05:54:30;;;;;;;15.45;9.93;;;19.20;99.90;;;;;;5114729;28;20034;-67
2023/09/06 05:56:56;;;;;;;14.68;9.55;;;19.20;99.90;;;;;;5114496;28;20111;-66
2023/09/06 05:59:22;;;;;;;17.63;10.30;;;19.20;99.90;;;;;;5114909;28;20063;-68
2023/09/06 06:01:48;;;;;;;17.13;9.68;;;19.30;99.90;;;;;;5114686;28;20031;-66
2023/09/06 06:04:13;;;;;;;18.95;10.15;;;19.30;99.90;;;;;;5108484;28;20024;-66
2023/09/06 06:06:40;;;;;;;17.15;10.00;;;19.40;99.90;;;;;;5104851;28;20036;-66
2023/09/06 06:09:06;;;;;;;14.55;10.07;;;19.40;99.90;;;;;;5114022;28;20047;-68
2023/09/06 06:11:31;;;;;;;19.90;10.15;;;19.50;99.90;;;;;;5114781;28;20035;-67
2023/09/06 06:13:57;;;;;;;19.95;10.55;;;19.50;99.90;;;;;;5114508;28;20451;-69
2023/09/06 06:16:23;;;;;;;14.60;10.15;;;19.60;99.90;;;;;;5106715;28;20077;-68
2023/09/06 06:18:48;;;;;;;14.68;9.70;;;19.70;99.90;;;;;;5114421;28;20102;-69
2023/09/06 06:21:14;;;;;;;18.23;10.07;;;19.70;99.90;;;;;;5113191;28;20023;-68
2023/09/06 06:23:43;;;;;;;16.70;9.52;;;19.80;99.90;;;;;;5093837;28;20384;-69
2023/09/06 06:26:09;;;;;;;17.45;9.43;;;19.90;99.90;;;;;;5108730;28;20039;-68
2023/09/06 06:28:35;;;;;;;15.65;9.98;;;19.90;99.90;;;;;;5114616;28;20370;-68
2023/09/06 06:31:00;;;;;;;16.95;10.05;;;20.00;99.90;;;;;;5114131;28;20068;-68
2023/09/06 06:33:26;;;;;;;16.55;9.77;;;20.00;99.90;;;;;;5112950;28;20019;-67
2023/09/06 06:35:52;;;;;;;18.30;10.35;;;20.10;99.90;;;;;;5112788;28;20031;-67
2023/09/06 06:38:17;;;;;;;15.73;9.73;;;20.20;99.90;;;;;;5113445;28;20504;-67
2023/09/06 06:40:43;;;;;;;16.15;9.13;;;20.30;99.90;;;;;;5111832;28;20106;-67
2023/09/06 06:43:08;;;;;;;17.70;9.85;;;20.40;99.90;;;;;;5110963;28;20103;-68
2023/09/06 06:45:34;;;;;;;15.20;9.93;;;20.40;99.90;;;;;;5113091;28;20032;-68
2023/09/06 06:47:59;;;;;;;13.18;8.88;;;20.40;99.90;;;;;;5113914;28;20099;-67
2023/09/06 06:50:25;;;;;;;15.10;9.82;;;20.50;99.90;;;;;;5113903;28;20027;-68
2023/09/06 06:52:51;;;;;;;17.52;9.93;;;20.60;99.90;;;;;;5113707;28;20022;-68
2023/09/06 06:55:17;;;;;;;19.73;10.07;;;20.80;99.90;;;;;;5113859;28;20035;-67
2023/09/06 06:57:42;;;;;;;20.15;10.27;;;20.80;99.90;;;;;;5105121;28;20020;-68
2023/09/06 07:00:11;;;;;;;17.05;9.85;;;20.90;99.90;;;;;;5093381;28;20035;-68
2023/09/06 07:02:37;;;;;;;16.60;9.63;;;21.10;99.90;;;;;;5093369;28;20064;-68
2023/09/06 07:05:03;;;;;;;15.20;10.35;;;21.20;99.90;;;;;;5099541;28;20101;-68
2023/09/06 07:07:29;;;;;;;15.68;9.20;;;21.40;99.90;;;;;;5113517;28;20045;-68
2023/09/06 07:09:55;;;;;;;17.83;10.05;;;21.50;99.90;;;;;;5099364;28;20048;-69
2023/09/06 07:12:20;;;;;;;14.50;9.38;;;21.70;99.90;;;;;;5114185;28;20121;-68
2023/09/06 07:14:47;;;;;;;16.30;9.55;;;21.80;99.90;;;;;;5119506;27;20495;-67
2023/09/06 07:17:12;;;;;;;16.75;9.38;;;22.00;99.90;;;;;;5120368;28;20063;-68
2023/09/06 07:19:38;;;;;;;17.55;10.07;;;22.10;99.90;;;;;;5120280;27;20059;-68
2023/09/06 07:22:04;;;;;;;16.73;8.65;;;22.40;99.90;;;;;;5117789;28;20023;-69
2023/09/06 07:24:29;;;;;;;20.17;9.57;;;22.70;99.90;;;;;;5102416;28;20024;-68
2023/09/06 07:26:55;;;;;;;18.33;10.80;;;23.20;99.90;;;;;;5099993;28;20114;-69
2023/09/06 07:29:22;;;;;;;16.65;9.75;;;23.60;99.90;;;;;;5098337;28;20027;-68
2023/09/06 07:31:48;;;;;;;16.02;9.18;;;24.10;99.90;;;;;;5109705;28;20058;-68
2023/09/06 07:34:13;;;;;;;13.38;8.98;;;24.90;99.90;;;;;;5120162;27;20063;-68
2023/09/06 07:36:39;;;;;;;15.95;8.73;;;25.70;99.90;;;;;;5120347;27;20420;-68
2023/09/06 07:39:04;;;;;;;16.25;8.80;;;26.70;99.90;;;;;;5120094;27;20103;-69
2023/09/06 07:41:30;;;;;;;17.08;9.15;;;27.90;99.90;;;;;;5120442;27;20030;-68
2023/09/06 07:43:56;;;;;;;21.30;8.65;;;29.10;99.90;;;;;;5110141;27;20028;-67
2023/09/06 07:46:25;;;;;;;16.58;8.07;;;30.20;99.50;;;;;;5115492;28;20042;-69
2023/09/06 07:48:51;;;;;;;17.95;8.05;;;31.20;97.90;;;;;;5115743;27;20039;-69
2023/09/06 07:51:17;;;;;;;12.23;7.13;;;32.20;96.70;;;;;;5114311;27;20035;-68
2023/09/06 07:53:43;;;;;;;16.70;7.65;;;33.30;95.60;;;;;;5114365;27;20027;-68
2023/09/06 07:56:08;;;;;;;13.63;7.25;;;34.30;93.90;;;;;;5107961;28;20498;-68
2023/09/06 07:58:34;;;;;;;20.33;8.43;;;35.20;93.20;;;;;;5119076;28;20032;-70
2023/09/06 08:01:00;;;;;;;12.27;7.25;;;36.20;92.20;;;;;;5120060;28;20054;-69
2023/09/06 08:03:26;;;;;;;10.80;6.80;;;37.00;91.30;;;;;;5119602;28;20019;-67
2023/09/06 08:05:52;;;;;;;14.02;7.32;;;37.80;90.10;;;;;;5115260;27;20044;-69
2023/09/06 08:08:17;;;;;;;14.52;7.38;;;38.20;87.50;;;;;;5099556;28;20172;-67
2023/09/06 08:10:45;;;;;;;14.25;7.35;;;38.40;87.20;;;;;;5099749;28;20049;-69
2023/09/06 08:13:11;;;;;;;13.60;7.30;;;38.90;86.80;;;;;;5105226;28;20031;-67
2023/09/06 08:15:37;;;;;;;12.93;6.55;;;39.40;85.70;;;;;;5106228;28;20111;-67
2023/09/06 08:18:03;;;;;;;10.18;6.70;;;39.90;84.50;;;;;;5101020;27;20388;-67
2023/09/06 08:20:30;;;;;;;11.48;7.30;;;40.30;83.30;;;;;;5099253;28;20387;-68
2023/09/06 08:22:55;;;;;;;13.73;6.93;;;40.70;82.50;;;;;;5113787;28;20107;-67
2023/09/06 08:25:21;;;;;;;11.38;7.18;;;41.00;81.70;;;;;;5115446;28;20115;-67
2023/09/06 08:27:49;;;;;;;11.95;6.82;;;41.40;81.30;;;;;;5108988;28;20380;-68
2023/09/06 08:30:15;;;;;;;9.50;7.38;;;41.70;80.40;;;;;;5096146;28;20380;-69
2023/09/06 08:32:42;;;;;;;12.50;6.75;;;42.10;79.50;;;;;;5096843;28;20424;-69
2023/09/06 08:35:11;;;;;;;14.40;7.75;;;42.40;78.90;;;;;;5113855;28;20036;-68
2023/09/06 08:37:37;;;;;;;12.63;7.78;;;42.70;78.20;;;;;;5106903;28;20024;-67
2023/09/06 08:40:06;;;;;;;13.65;7.47;;;43.00;77.60;;;;;;5104068;28;20114;-69
2023/09/06 08:42:33;;;;;;;13.82;7.22;;;43.00;77.60;;;;;;5110217;28;20384;-68
2023/09/06 08:45:01;;;;;;;11.40;7.15;;;43.20;76.90;;;;;;5095821;28;20035;-68
2023/09/06 08:47:28;;;;;;;11.27;7.15;;;43.20;76.60;;;;;;5101387;28;20047;-68
2023/09/06 08:49:54;;;;;;;11.23;6.95;;;43.30;76.40;;;;;;5109047;28;20462;-69
2023/09/06 08:52:21;;;;;;;12.68;7.38;;;43.60;76.10;;;;;;5104581;28;20085;-68
2023/09/06 08:54:50;;;;;;;10.93;7.47;;;43.80;75.60;;;;;;5099637;28;20023;-68
2023/09/06 08:57:17;;;;;;;13.27;8.02;;;43.90;75.40;;;;;;5115923;28;20506;-68
2023/09/06 08:59:43;;;;;;;12.05;7.60;;;44.00;74.90;;;;;;5115911;28;20043;-68
2023/09/06 09:02:12;;;;;;;13.23;8.07;;;44.20;75.00;;;;;;5116155;28;20031;-67
2023/09/06 09:04:42;;;;;;;12.15;7.75;;;44.40;74.70;;;;;;5115538;28;20035;-69
2023/09/06 09:07:12;;;;;;;14.82;8.10;;;44.70;74.60;;;;;;5104620;28;20059;-69
2023/09/06 09:10:16;;;;;;;12.80;8.27;;;44.80;73.80;;;;;;5104377;28;20047;-68
2023/09/06 09:12:42;;;;;;;13.85;8.98;;;44.70;74.10;;;;;;5095807;28;20044;-68
2023/09/06 09:15:08;;;;;;;17.33;8.80;;;44.70;74.10;;;;;;5098392;28;20032;-67
2023/09/06 09:17:37;;;;;;;15.38;9.13;;;44.40;73.80;;;;;;5104419;28;20020;-68
2023/09/06 09:20:05;;;;;;;12.82;8.43;;;44.20;74.30;;;;;;5098674;28;20059;-68
2023/09/06 09:22:36;;;;;;;14.48;8.85;;;44.20;73.90;;;;;;5101493;28;20119;-68
2023/09/06 09:25:15;;;;;;;13.27;8.85;;;44.20;73.80;;;;;;5099074;28;20054;-67
2023/09/06 09:27:57;;;;;;;12.50;9.13;;;44.30;74.00;;;;;;5101591;28;20044;-67
2023/09/06 09:30:23;;;;;;;13.05;8.50;;;44.30;73.50;;;;;;5110105;28;20085;-67
2023/09/06 09:32:56;;;;;;;13.75;8.48;;;44.40;73.00;;;;;;5099016;28;20459;-68
2023/09/06 09:35:22;;;;;;;12.38;7.82;;;44.00;73.20;;;;;;5107159;28;20066;-68
2023/09/06 09:37:51;;;;;;;11.80;7.55;;;43.60;73.60;;;;;;5105392;28;20442;-68
2023/09/06 09:40:17;;;;;;;13.43;7.90;;;43.70;73.90;;;;;;5113395;27;20059;-68
2023/09/06 09:42:53;;;;;;;12.38;6.93;;;44.00;73.40;;;;;;5114642;28;20147;-68
2023/09/06 09:45:18;;;;;;;11.45;6.55;;;44.30;73.00;;;;;;5114634;28;20024;-68
2023/09/06 09:47:45;;;;;;;12.60;6.55;;;44.60;72.30;;;;;;5114500;28;20034;-67
2023/09/06 09:50:12;;;;;;;12.57;6.18;;;44.80;71.70;;;;;;5100113;28;20032;-68
2023/09/06 09:52:42;;;;;;;8.23;5.78;;;44.50;72.00;;;;;;5110699;28;20032;-68
2023/09/06 09:55:10;;;;;;;11.25;5.82;;;44.20;71.00;;;;;;5101934;28;20414;-68
2023/09/06 09:57:37;;;;;;;9.52;5.15;;;44.00;71.70;;;;;;5110725;28;20106;-69
2023/09/06 10:00:03;;;;;;;10.13;5.90;;;44.10;72.10;;;;;;5107380;28;20035;-68
2023/09/06 10:02:30;;;;;;;12.32;6.10;;;44.20;71.90;;;;;;5105268;28;20368;-69
2023/09/06 10:04:58;;;;;;;14.93;6.47;;;44.40;71.40;;;;;;5107446;28;20456;-68
2023/09/06 10:07:24;;;;;;;9.18;5.72;;;44.60;71.10;;;;;;5106442;28;20062;-68
2023/09/06 10:09:51;;;;;;;9.77;5.53;;;44.60;70.40;;;;;;5113070;28;20135;-67
2023/09/06 10:12:17;;;;;;;5.82;4.78;;;44.70;70.00;;;;;;5099753;28;20031;-67
2023/09/06 10:14:43;;;;;;;9.55;5.63;;;44.70;70.50;;;;;;5110935;28;20476;-67
2023/09/06 10:17:10;;;;;;;6.55;4.80;;;44.80;70.60;;;;;;5096880;28;20035;-68
2023/09/06 10:19:37;;;;;;;14.02;5.97;;;45.00;69.50;;;;;;5105011;28;20028;-68
2023/09/06 10:22:07;;;;;;;9.68;4.88;;;45.40;70.40;;;;;;5113951;28;20035;-67
2023/09/06 10:24:35;;;;;;;11.63;5.25;;;45.60;69.10;;;;;;5114775;28;20056;-67
2023/09/06 10:27:02;;;;;;;9.77;4.95;;;45.80;70.00;;;;;;5114194;28;20031;-68
2023/09/06 10:29:32;;;;;;;8.20;5.10;;;46.00;69.40;;;;;;5113852;28;20036;-68
2023/09/06 10:32:04;;;;;;;7.85;5.03;;;46.20;69.70;;;;;;5098509;28;20056;-68
2023/09/06 10:34:33;;;;;;;12.90;5.60;;;46.50;69.40;;;;;;5098793;28;20038;-68
2023/09/06 10:37:01;;;;;;;8.27;5.45;;;46.70;68.50;;;;;;5109509;28;20023;-69
2023/09/06 10:39:29;;;;;;;9.30;5.20;;;46.60;68.20;;;;;;5114247;28;20031;-69
2023/09/06 10:42:13;;;;;;;12.18;6.05;;;46.60;68.70;;;;;;5113962;28;20036;-68
2023/09/06 10:44:53;;;;;;;9.02;5.68;;;46.60;69.00;;;;;;5114125;28;20103;-68
2023/09/06 10:47:36;;;;;;;8.38;5.28;;;46.80;68.80;;;;;;5111547;28;20046;-68
2023/09/06 10:50:15;;;;;;;7.82;4.80;;;46.70;68.80;;;;;;5114061;28;20055;-69
2023/09/06 10:52:50;;;;;;;9.93;4.30;;;46.50;67.90;;;;;;5104114;28;20055;-69
2023/09/06 10:55:21;;;;;;;7.18;4.53;;;46.50;66.90;;;;;;5098674;28;20383;-70
2023/09/06 10:57:50;;;;;;;7.72;4.32;;;46.10;67.10;;;;;;5112755;28;20043;-68
2023/09/06 11:00:21;;;;;;;9.35;4.50;;;45.80;67.90;;;;;;5113300;28;20023;-69
2023/09/06 11:03:16;;;;;;;9.63;4.72;;;45.70;67.80;;;;;;5095736;28;20020;-68
2023/09/06 11:05:44;;;;;;;6.30;4.80;;;45.70;67.50;;;;;;5112909;28;20032;-69
2023/09/06 11:08:22;;;;;;;9.55;6.43;;;45.80;67.80;;;;;;5111820;28;20051;-68
2023/09/06 11:10:47;;;;;;;14.80;5.85;;;45.60;67.90;;;;;;5113422;28;20020;-67
2023/09/06 11:13:18;;;;;;;8.82;5.35;;;45.20;68.80;;;;;;5112623;28;20035;-67
2023/09/06 11:15:43;;;;;;;;;;;45.10;68.60;;;;;;5103578;28;20146;-67
2023/09/06 11:18:09;;;;;;;10.45;6.25;;;45.10;68.50;;;;;;5108355;28;20374;-69
2023/09/06 11:20:35;;;;;;;9.68;5.45;;;45.10;68.80;;;;;;5112687;28;20514;-71
2023/09/06 11:23:02;;;;;;;10.35;5.18;;;45.10;68.90;;;;;;5106866;28;20073;-70
2023/09/06 11:25:30;;;;;;;8.00;4.63;;;45.40;68.30;;;;;;5111315;28;20107;-68
2023/09/06 11:27:59;;;;;;;9.05;4.38;;;45.40;68.20;;;;;;5113039;28;20123;-68
2023/09/06 11:30:26;;;;;;;10.07;5.37;;;45.70;68.00;;;;;;5097519;28;20028;-70
2023/09/06 11:32:56;;;;;;;8.73;4.57;;;46.00;68.00;;;;;;5111613;28;20367;-69
2023/09/06 11:35:32;;;;;;;9.77;5.73;;;46.10;67.80;;;;;;5113212;28;20076;-68
2023/09/06 11:37:58;;;;;;;10.60;4.80;;;46.00;68.30;;;;;;5103350;28;20028;-69
2023/09/06 11:40:27;;;;;;;9.27;4.55;;;45.90;68.30;;;;;;5111573;28;20046;-69
2023/09/06 11:42:56;;;;;;;6.63;4.78;;;46.00;68.20;;;;;;5102933;28;20387;-70
2023/09/06 11:45:22;;;;;;;7.32;4.75;;;46.00;68.10;;;;;;5106226;28;20032;-69
2023/09/06 11:47:48;;;;;;;7.53;5.10;;;45.90;68.40;;;;;;5105072;28;20165;-68
2023/09/06 11:50:19;;;;;;;5.90;4.10;;;46.00;68.30;;;;;;5110926;28;20110;-69
2023/09/06 11:52:47;;;;;;;9.90;4.18;;;46.20;68.10;;;;;;5110693;28;20420;-68
2023/09/06 11:55:17;;;;;;;9.13;4.72;;;46.50;67.70;;;;;;5099014;28;20172;-70
2023/09/06 11:57:50;;;;;;;6.40;3.97;;;46.60;67.60;;;;;;5113035;28;20035;-70
2023/09/06 12:00:28;;;;;;;6.22;3.67;;;46.60;66.90;;;;;;5115063;28;20028;-69
2023/09/06 12:03:10;;;;;;;6.82;4.22;;;46.50;66.50;;;;;;5116666;28;20031;-69
2023/09/06 12:05:41;;;;;;;9.93;4.35;;;46.30;66.20;;;;;;5115102;28;20028;-68
2023/09/06 12:08:08;;;;;;;7.95;4.35;;;46.00;66.40;;;;;;5114384;28;20052;-69
2023/09/06 12:10:35;;;;;;;6.82;4.10;;;45.60;67.30;;;;;;5116364;28;20067;-69
2023/09/06 12:13:03;;;;;;;8.45;3.97;;;45.40;67.20;;;;;;5110386;28;20134;-68
2023/09/06 12:15:29;;;;;;;5.18;3.67;;;45.60;67.30;;;;;;5116055;28;20069;-70
2023/09/06 12:17:56;;;;;;;7.05;3.83;;;45.50;67.30;;;;;;5112774;28;20027;-70
2023/09/06 12:20:23;;;;;;;8.40;4.93;;;45.50;67.00;;;;;;5115832;28;20058;-68
2023/09/06 12:22:51;;;;;;;6.97;4.72;;;45.30;66.80;;;;;;5113994;28;20035;-70
2023/09/06 12:25:20;;;;;;;7.78;4.20;;;45.00;67.80;;;;;;5102235;28;20077;-68
2023/09/06 12:27:47;;;;;;;8.90;4.40;;;45.00;68.80;;;;;;5109152;28;20051;-68
2023/09/06 12:30:16;;;;;;;6.22;4.38;;;45.30;67.30;;;;;;5114882;28;20206;-70
2023/09/06 12:32:42;;;;;;;7.38;4.28;;;45.30;67.40;;;;;;5115723;28;20446;-70
2023/09/06 12:35:09;;;;;;;9.93;5.00;;;45.10;67.70;;;;;;5103352;28;20076;-70
2023/09/06 12:37:36;;;;;;;8.05;4.00;;;45.00;68.00;;;;;;5115076;28;20039;-68
2023/09/06 12:40:15;;;;;;;6.90;3.70;;;45.10;67.80;;;;;;5103372;28;20051;-68
2023/09/06 12:42:43;;;;;;;7.50;4.30;;;44.90;67.80;;;;;;5108524;28;20499;-69